Time;durP1;ratioP1;P1;durP2;ratioP2;P2;SDS_P1;SDS_P2;PMS_P1;PMS_P2;Temp;Humidity;BMP_temperature;BMP_pressure;BME280_temperature;BME280_humidity;BME280_pressure;Samples;Min_cycle;Max_cycle;Signal;HPM_P1;HPM_P2
2021/08/20 00:00:34;;;;;;;26.20;18.70;;;16.20;95.50;;;;;;4995371;28;20038;-78
2021/08/20 00:03:00;;;;;;;24.08;18.20;;;16.20;95.50;;;;;;4995456;28;20046;-78
2021/08/20 00:05:26;;;;;;;28.05;18.38;;;16.20;95.40;;;;;;4978150;28;20479;-78
2021/08/20 00:07:51;;;;;;;22.42;16.42;;;16.20;95.40;;;;;;4978013;28;20026;-79
2021/08/20 00:10:17;;;;;;;25.23;18.58;;;16.10;95.30;;;;;;5012180;28;20064;-78
2021/08/20 00:12:43;;;;;;;21.00;16.33;;;16.10;95.30;;;;;;5016517;28;20051;-78
2021/08/20 00:15:09;;;;;;;28.00;18.35;;;16.10;95.30;;;;;;5013868;28;20038;-78
2021/08/20 00:17:35;;;;;;;21.80;15.65;;;16.00;95.20;;;;;;4995775;28;20489;-78
2021/08/20 00:20:01;;;;;;;26.38;17.50;;;15.90;95.20;;;;;;5012255;28;20030;-78
2021/08/20 00:22:27;;;;;;;24.48;16.88;;;15.90;95.20;;;;;;5013442;28;20030;-78
2021/08/20 00:24:53;;;;;;;21.88;16.77;;;15.90;95.20;;;;;;5011994;28;20137;-78
2021/08/20 00:27:18;;;;;;;22.33;16.52;;;15.90;95.20;;;;;;4995824;28;20090;-78
2021/08/20 00:29:44;;;;;;;21.98;16.42;;;15.90;95.30;;;;;;4995560;28;20482;-78
2021/08/20 00:32:10;;;;;;;22.83;15.20;;;15.80;95.20;;;;;;5011566;28;20037;-78
2021/08/20 00:34:35;;;;;;;27.98;18.50;;;15.80;95.30;;;;;;4995591;28;20554;-78
2021/08/20 00:37:01;;;;;;;22.10;16.67;;;15.80;95.30;;;;;;5012193;28;20470;-78
2021/08/20 00:39:27;;;;;;;20.98;16.48;;;15.70;95.30;;;;;;4995834;28;20032;-78
2021/08/20 00:41:53;;;;;;;24.38;17.25;;;15.70;95.30;;;;;;5011924;28;20038;-78
2021/08/20 00:44:20;;;;;;;23.98;17.90;;;15.70;95.40;;;;;;5011750;28;20026;-78
2021/08/20 00:46:46;;;;;;;24.30;17.85;;;15.70;95.40;;;;;;5012755;28;20029;-78
2021/08/20 00:49:15;;;;;;;26.95;17.10;;;15.70;95.40;;;;;;5013134;28;20390;-78
2021/08/20 00:51:41;;;;;;;23.67;16.95;;;15.70;95.50;;;;;;5011593;28;20030;-78
2021/08/20 00:54:10;;;;;;;23.23;16.92;;;15.60;95.50;;;;;;5012958;28;20033;-78
2021/08/20 00:56:41;;;;;;;24.83;16.00;;;15.60;95.50;;;;;;5011353;28;20451;-78
2021/08/20 00:59:08;;;;;;;23.58;17.13;;;15.60;95.50;;;;;;5012580;28;20029;-78
2021/08/20 01:01:34;;;;;;;22.50;15.80;;;15.70;95.50;;;;;;4995262;28;20367;-78
2021/08/20 01:04:00;;;;;;;23.55;15.55;;;15.60;95.50;;;;;;5011575;28;20029;-78
2021/08/20 01:06:27;;;;;;;19.73;16.10;;;15.60;95.50;;;;;;5011743;28;20105;-78
2021/08/20 01:08:54;;;;;;;22.65;16.13;;;15.70;95.50;;;;;;5011372;28;20030;-78
2021/08/20 01:11:20;;;;;;;22.77;15.77;;;15.70;95.50;;;;;;5011604;28;20489;-78
2021/08/20 01:13:46;;;;;;;22.83;15.88;;;15.60;95.50;;;;;;5014236;28;20128;-78
2021/08/20 01:16:12;;;;;;;27.83;16.25;;;15.60;95.40;;;;;;4998912;28;20117;-78
2021/08/20 01:18:40;;;;;;;20.48;14.93;;;15.60;95.50;;;;;;5014787;28;20038;-78
2021/08/20 01:21:10;;;;;;;22.95;16.00;;;15.60;95.40;;;;;;4998804;28;20104;-78
2021/08/20 01:23:37;;;;;;;20.95;14.65;;;15.60;95.40;;;;;;5014778;28;20028;-78
2021/08/20 01:26:03;;;;;;;21.35;14.32;;;15.60;95.40;;;;;;5014712;28;20034;-78
2021/08/20 01:28:29;;;;;;;24.10;15.70;;;15.60;95.40;;;;;;5014988;28;20033;-78
2021/08/20 01:31:06;;;;;;;21.92;15.52;;;15.60;95.40;;;;;;5016038;28;20510;-78
2021/08/20 01:33:35;;;;;;;19.10;14.60;;;15.50;95.30;;;;;;5015621;28;20474;-78
2021/08/20 01:36:00;;;;;;;20.98;14.55;;;15.50;95.30;;;;;;4998182;28;20038;-78
2021/08/20 01:38:27;;;;;;;20.88;15.25;;;15.50;95.30;;;;;;5014608;28;20033;-78
2021/08/20 01:40:53;;;;;;;21.58;15.85;;;15.50;95.40;;;;;;5014318;28;20546;-78
2021/08/20 01:43:21;;;;;;;20.42;15.10;;;15.50;95.40;;;;;;5011373;28;20497;-78
2021/08/20 01:45:47;;;;;;;19.20;15.57;;;15.50;95.40;;;;;;5014681;28;20022;-78
2021/08/20 01:48:13;;;;;;;23.85;16.17;;;15.50;95.40;;;;;;5014087;28;20061;-78
2021/08/20 01:50:40;;;;;;;20.70;15.05;;;15.40;95.40;;;;;;5014198;28;20030;-78
2021/08/20 01:53:10;;;;;;;21.30;16.42;;;15.50;95.40;;;;;;5014298;28;20049;-78
2021/08/20 01:55:36;;;;;;;23.48;15.68;;;15.40;95.40;;;;;;5014109;28;20032;-78
2021/08/20 01:58:03;;;;;;;23.95;15.15;;;15.40;95.40;;;;;;5013732;28;20132;-78
2021/08/20 02:00:29;;;;;;;20.33;15.23;;;15.40;95.40;;;;;;5014123;28;20022;-78
2021/08/20 02:02:55;;;;;;;21.10;15.00;;;15.40;95.40;;;;;;5015175;28;20467;-78
2021/08/20 02:05:21;;;;;;;20.73;14.52;;;15.40;95.50;;;;;;5014319;28;20037;-78
2021/08/20 02:07:46;;;;;;;21.45;15.35;;;15.30;95.50;;;;;;5015137;28;20506;-78
2021/08/20 02:10:12;;;;;;;19.20;14.63;;;15.40;95.60;;;;;;5014160;28;20493;-77
2021/08/20 02:12:38;;;;;;;20.33;15.23;;;15.40;95.60;;;;;;5014021;28;20088;-78
2021/08/20 02:15:05;;;;;;;21.58;13.75;;;15.50;95.70;;;;;;5014952;28;20037;-78
2021/08/20 02:17:31;;;;;;;20.83;15.38;;;15.50;95.70;;;;;;4997499;28;20394;-78
2021/08/20 02:19:57;;;;;;;23.65;15.65;;;15.50;95.70;;;;;;4997819;28;20034;-78
2021/08/20 02:22:26;;;;;;;22.38;15.73;;;15.50;95.60;;;;;;5013761;28;20121;-78
2021/08/20 02:24:54;;;;;;;20.88;14.85;;;15.60;95.60;;;;;;5013969;28;20037;-78
2021/08/20 02:27:20;;;;;;;21.92;14.77;;;15.60;95.60;;;;;;4997545;28;20034;-78
2021/08/20 02:29:47;;;;;;;22.90;14.77;;;15.70;95.60;;;;;;4997832;28;20045;-78
2021/08/20 02:32:12;;;;;;;20.35;15.45;;;15.70;95.60;;;;;;5013468;28;20049;-78
2021/08/20 02:34:38;;;;;;;23.08;15.98;;;15.70;95.60;;;;;;5013486;28;20034;-78
2021/08/20 02:37:04;;;;;;;20.30;16.27;;;15.70;95.60;;;;;;5013090;28;20129;-78
2021/08/20 02:39:30;;;;;;;21.77;15.88;;;15.70;95.50;;;;;;5014959;28;20459;-78
2021/08/20 02:41:56;;;;;;;20.63;15.98;;;15.70;95.50;;;;;;4997278;28;20030;-78
2021/08/20 02:44:22;;;;;;;22.85;16.15;;;15.70;95.50;;;;;;5013142;28;20036;-78
2021/08/20 02:46:48;;;;;;;22.27;15.95;;;15.80;95.60;;;;;;4996829;28;20169;-78
2021/08/20 02:49:13;;;;;;;24.42;17.02;;;15.80;95.50;;;;;;5014356;28;20033;-78
2021/08/20 02:51:39;;;;;;;23.45;16.95;;;15.80;95.50;;;;;;5012989;28;20034;-78
2021/08/20 02:54:04;;;;;;;19.52;14.98;;;15.80;95.50;;;;;;4980556;28;20403;-78
2021/08/20 02:56:30;;;;;;;22.17;16.55;;;15.80;95.40;;;;;;5013475;28;20034;-78
2021/08/20 02:58:56;;;;;;;24.33;17.60;;;15.80;95.40;;;;;;5014423;28;20057;-78
2021/08/20 03:01:21;;;;;;;22.17;17.60;;;15.80;95.40;;;;;;5012846;28;20026;-78
2021/08/20 03:03:48;;;;;;;25.38;18.55;;;15.80;95.40;;;;;;5014085;28;20034;-78
2021/08/20 03:06:14;;;;;;;23.13;17.35;;;15.90;95.40;;;;;;5013243;28;20060;-78
2021/08/20 03:08:40;;;;;;;26.98;18.95;;;15.90;95.40;;;;;;4996621;28;20026;-78
2021/08/20 03:11:06;;;;;;;24.88;19.25;;;15.90;95.40;;;;;;5012892;28;20037;-78
2021/08/20 03:13:31;;;;;;;24.63;18.77;;;15.90;95.30;;;;;;5013645;28;20116;-78
2021/08/20 03:15:57;;;;;;;26.42;18.70;;;15.90;95.40;;;;;;5013057;28;20030;-78
2021/08/20 03:18:23;;;;;;;25.50;18.90;;;15.90;95.40;;;;;;5012901;28;20034;-78
2021/08/20 03:20:49;;;;;;;29.40;19.92;;;15.90;95.40;;;;;;5013935;28;20405;-78
2021/08/20 03:23:15;;;;;;;26.15;18.20;;;15.90;95.30;;;;;;5012566;28;20041;-78
2021/08/20 03:25:41;;;;;;;23.80;17.70;;;16.00;95.40;;;;;;5012870;28;20030;-78
2021/08/20 03:28:07;;;;;;;30.50;20.83;;;15.90;95.40;;;;;;5012779;28;20355;-78
2021/08/20 03:30:35;;;;;;;26.42;20.10;;;15.90;95.40;;;;;;4996215;28;20462;-78
2021/08/20 03:33:00;;;;;;;27.20;20.23;;;15.90;95.60;;;;;;4996323;28;20034;-78
2021/08/20 03:35:26;;;;;;;27.33;20.98;;;16.00;95.40;;;;;;5012321;28;20166;-79
2021/08/20 03:37:52;;;;;;;27.75;19.77;;;16.00;95.40;;;;;;5012526;28;20032;-78
2021/08/20 03:40:18;;;;;;;29.20;20.70;;;16.00;95.40;;;;;;5012400;28;20022;-78
2021/08/20 03:42:43;;;;;;;31.23;20.20;;;15.90;95.40;;;;;;4979778;28;20589;-79
2021/08/20 03:45:11;;;;;;;30.00;21.25;;;15.90;95.50;;;;;;5012341;28;20041;-79
2021/08/20 03:47:37;;;;;;;28.10;20.95;;;15.90;95.50;;;;;;4996206;28;20544;-79
2021/08/20 03:50:04;;;;;;;29.30;22.25;;;16.00;95.50;;;;;;5013263;28;20058;-78
2021/08/20 03:52:30;;;;;;;35.72;21.67;;;16.00;95.60;;;;;;5013351;28;20124;-79
2021/08/20 03:54:55;;;;;;;31.83;21.77;;;16.00;95.60;;;;;;5012477;28;20076;-79
2021/08/20 03:57:21;;;;;;;29.92;21.15;;;16.00;95.60;;;;;;5012218;28;20061;-79
2021/08/20 03:59:46;;;;;;;30.17;21.27;;;16.00;95.60;;;;;;5013532;28;20502;-79
2021/08/20 04:02:12;;;;;;;28.92;20.17;;;16.00;95.90;;;;;;4993548;28;20393;-79
2021/08/20 04:04:38;;;;;;;33.70;21.30;;;16.00;95.60;;;;;;5012079;28;20022;-79
2021/08/20 04:07:04;;;;;;;33.25;22.02;;;16.00;95.60;;;;;;5013944;28;20607;-79
2021/08/20 04:09:29;;;;;;;28.65;21.00;;;16.00;95.70;;;;;;5012252;28;20030;-79
2021/08/20 04:11:55;;;;;;;30.42;21.83;;;16.00;95.70;;;;;;5010118;28;20034;-78
2021/08/20 04:14:21;;;;;;;29.67;20.98;;;16.00;95.70;;;;;;5009043;28;20034;-79
2021/08/20 04:16:46;;;;;;;32.22;22.25;;;16.00;95.70;;;;;;5008924;28;20034;-79
2021/08/20 04:19:12;;;;;;;35.22;23.05;;;16.00;95.70;;;;;;5011865;28;20390;-79
2021/08/20 04:21:38;;;;;;;28.83;21.95;;;16.00;95.70;;;;;;4992454;28;20030;-78
2021/08/20 04:24:05;;;;;;;33.70;22.98;;;15.90;95.70;;;;;;4976977;28;20030;-79
2021/08/20 04:26:31;;;;;;;35.75;22.90;;;15.90;95.70;;;;;;4993600;28;20026;-78
2021/08/20 04:28:57;;;;;;;34.17;22.13;;;15.90;95.80;;;;;;4992298;28;20038;-79
2021/08/20 04:31:22;;;;;;;32.22;22.45;;;16.00;95.80;;;;;;4991798;28;20166;-79
2021/08/20 04:33:48;;;;;;;32.08;21.67;;;16.00;95.80;;;;;;4992227;28;20092;-79
2021/08/20 04:36:14;;;;;;;29.23;21.20;;;16.00;95.80;;;;;;5006405;28;20502;-79
2021/08/20 04:38:40;;;;;;;31.40;22.10;;;16.00;95.90;;;;;;5015201;28;20029;-79
2021/08/20 04:41:07;;;;;;;31.88;22.02;;;16.00;95.90;;;;;;5013861;28;20036;-79
2021/08/20 04:43:35;;;;;;;35.92;22.90;;;16.00;95.90;;;;;;5030507;28;20033;-79
2021/08/20 04:46:01;;;;;;;27.48;21.50;;;16.00;95.90;;;;;;5031327;28;20081;-79
2021/08/20 04:48:26;;;;;;;35.17;23.40;;;16.00;95.90;;;;;;5033072;28;20033;-79
2021/08/20 04:50:53;;;;;;;31.98;22.58;;;16.00;96.00;;;;;;5035252;28;20041;-79
2021/08/20 04:53:19;;;;;;;27.73;21.33;;;16.00;95.90;;;;;;5018942;28;20449;-79
2021/08/20 04:55:45;;;;;;;29.90;21.25;;;16.00;95.90;;;;;;5035321;28;20029;-79
2021/08/20 04:58:11;;;;;;;28.92;20.33;;;16.00;96.00;;;;;;5036294;28;20100;-79
2021/08/20 05:00:37;;;;;;;30.33;19.90;;;16.00;96.00;;;;;;5035978;28;20029;-79
2021/08/20 05:03:04;;;;;;;33.00;22.10;;;16.10;96.00;;;;;;5036360;28;20033;-79
2021/08/20 05:05:30;;;;;;;31.42;21.60;;;16.10;96.10;;;;;;5036188;28;20026;-79
2021/08/20 05:07:56;;;;;;;32.80;21.50;;;16.10;96.10;;;;;;5034946;28;20083;-78
2021/08/20 05:10:22;;;;;;;29.50;21.17;;;16.20;96.10;;;;;;5035146;28;20033;-79
2021/08/20 05:12:47;;;;;;;28.67;21.40;;;16.20;96.10;;;;;;5034533;28;20049;-79
2021/08/20 05:15:13;;;;;;;28.23;21.77;;;16.20;96.10;;;;;;5034525;28;20033;-79
2021/08/20 05:17:38;;;;;;;27.35;19.83;;;16.20;96.10;;;;;;5018354;28;20125;-78
2021/08/20 05:20:05;;;;;;;27.17;19.90;;;16.20;96.10;;;;;;5018539;28;20045;-79
2021/08/20 05:22:45;;;;;;;28.92;19.83;;;16.20;96.10;;;;;;5035707;28;20025;-79
2021/08/20 05:25:11;;;;;;;28.88;20.88;;;16.30;96.20;;;;;;5035860;28;20036;-78
2021/08/20 05:27:37;;;;;;;29.85;21.60;;;16.30;96.10;;;;;;5035949;28;20037;-79
2021/08/20 05:30:03;;;;;;;30.08;20.38;;;16.30;96.10;;;;;;5034556;28;20466;-79
2021/08/20 05:32:28;;;;;;;29.10;20.08;;;16.30;96.10;;;;;;5018130;28;20136;-79
2021/08/20 05:34:54;;;;;;;30.60;20.30;;;16.30;96.20;;;;;;5034383;28;20496;-78
2021/08/20 05:37:20;;;;;;;30.23;20.05;;;16.20;96.20;;;;;;5034401;28;20498;-78
2021/08/20 05:39:45;;;;;;;34.88;22.25;;;16.30;96.20;;;;;;5018080;28;20037;-79
2021/08/20 05:42:11;;;;;;;33.28;21.45;;;16.30;96.20;;;;;;5035418;28;20036;-79
2021/08/20 05:44:37;;;;;;;33.58;21.80;;;16.30;96.20;;;;;;5033938;28;20120;-79
2021/08/20 05:47:02;;;;;;;27.88;20.67;;;16.40;96.20;;;;;;5034120;28;20033;-79
2021/08/20 05:49:28;;;;;;;30.67;21.58;;;16.40;96.20;;;;;;5034481;28;20040;-79
2021/08/20 05:51:54;;;;;;;31.60;21.27;;;16.40;96.20;;;;;;5034144;28;20072;-79
2021/08/20 05:54:20;;;;;;;36.17;21.15;;;16.50;96.30;;;;;;5034128;28;20117;-79
2021/08/20 05:56:46;;;;;;;32.38;21.33;;;16.50;96.30;;;;;;5033774;28;20048;-78
2021/08/20 05:59:12;;;;;;;33.22;21.25;;;16.50;96.30;;;;;;5017172;28;20029;-79
2021/08/20 06:01:37;;;;;;;32.35;21.60;;;16.60;96.20;;;;;;5035608;28;20052;-79
2021/08/20 06:04:04;;;;;;;27.38;18.63;;;16.60;96.20;;;;;;5017538;28;20048;-79
2021/08/20 06:06:30;;;;;;;31.05;20.52;;;16.60;96.30;;;;;;5033708;28;20049;-79
2021/08/20 06:08:55;;;;;;;30.67;19.35;;;16.60;96.20;;;;;;5033823;28;20071;-79
2021/08/20 06:11:21;;;;;;;33.30;20.42;;;16.70;96.30;;;;;;5017370;28;20030;-79
2021/08/20 06:13:49;;;;;;;29.70;19.92;;;16.70;96.30;;;;;;5033686;28;20068;-79
2021/08/20 06:16:15;;;;;;;29.92;20.13;;;16.70;96.30;;;;;;5017365;28;20366;-79
2021/08/20 06:18:41;;;;;;;28.55;19.20;;;16.80;96.30;;;;;;5016858;28;20087;-79
2021/08/20 06:21:08;;;;;;;29.02;18.30;;;16.80;96.30;;;;;;5017022;28;20116;-79
2021/08/20 06:23:33;;;;;;;27.73;19.13;;;16.90;96.30;;;;;;5033452;28;20022;-79
2021/08/20 06:25:59;;;;;;;27.27;18.52;;;16.90;96.30;;;;;;5033422;28;20040;-78
2021/08/20 06:28:25;;;;;;;26.60;19.02;;;16.90;96.20;;;;;;5033511;28;20032;-78
2021/08/20 06:30:51;;;;;;;29.30;18.85;;;17.00;96.20;;;;;;5033444;28;20482;-78
2021/08/20 06:33:17;;;;;;;25.75;16.33;;;17.00;96.20;;;;;;5034641;28;20037;-78
2021/08/20 06:35:43;;;;;;;25.08;17.15;;;17.10;96.20;;;;;;5034552;28;20032;-78
2021/08/20 06:38:09;;;;;;;27.38;18.13;;;17.10;96.10;;;;;;5033087;28;20027;-78
2021/08/20 06:40:35;;;;;;;27.50;18.30;;;17.20;96.10;;;;;;5034501;28;20112;-78
2021/08/20 06:43:01;;;;;;;22.30;15.90;;;17.20;96.00;;;;;;5033417;28;20030;-78
2021/08/20 06:45:27;;;;;;;23.60;16.80;;;17.20;96.00;;;;;;5033388;28;20083;-78
2021/08/20 06:47:53;;;;;;;28.48;18.10;;;17.30;96.00;;;;;;5033092;28;20033;-78
2021/08/20 06:50:19;;;;;;;22.65;16.65;;;17.30;95.90;;;;;;5034168;28;20534;-78
2021/08/20 06:52:45;;;;;;;23.77;16.35;;;17.30;95.90;;;;;;5032980;28;20072;-78
2021/08/20 06:55:11;;;;;;;26.75;16.73;;;17.30;95.80;;;;;;5032936;28;20551;-78
2021/08/20 06:57:37;;;;;;;25.13;17.73;;;17.30;95.70;;;;;;5032621;28;20058;-78
2021/08/20 07:00:03;;;;;;;25.85;17.50;;;17.30;95.70;;;;;;5016669;28;20482;-78
2021/08/20 07:02:29;;;;;;;23.10;16.70;;;17.30;95.70;;;;;;5015847;28;20057;-78
2021/08/20 07:04:55;;;;;;;24.33;17.45;;;17.30;95.70;;;;;;5032781;28;20433;-78
2021/08/20 07:07:20;;;;;;;24.92;16.95;;;17.30;95.70;;;;;;5032759;28;20021;-78
2021/08/20 07:09:46;;;;;;;23.30;15.70;;;17.40;95.80;;;;;;5032358;28;20030;-78
2021/08/20 07:12:11;;;;;;;22.88;15.13;;;17.40;95.90;;;;;;5032228;28;20065;-78
2021/08/20 07:14:37;;;;;;;20.05;14.38;;;17.40;95.90;;;;;;5032746;28;20102;-78
2021/08/20 07:17:03;;;;;;;25.65;16.10;;;17.50;95.90;;;;;;5032947;28;20029;-78
2021/08/20 07:19:29;;;;;;;21.45;15.52;;;17.60;95.80;;;;;;5033478;28;20030;-78
2021/08/20 07:21:54;;;;;;;19.42;14.02;;;17.70;95.80;;;;;;5032490;28;20112;-78
2021/08/20 07:24:20;;;;;;;18.95;14.32;;;17.80;95.80;;;;;;5032355;28;20021;-78
2021/08/20 07:26:46;;;;;;;22.02;16.25;;;17.90;95.80;;;;;;5016302;28;20033;-79
2021/08/20 07:29:11;;;;;;;21.08;15.93;;;18.00;95.70;;;;;;5015568;28;20021;-78
2021/08/20 07:31:37;;;;;;;20.85;15.25;;;18.10;95.70;;;;;;5033596;28;20029;-78
2021/08/20 07:34:02;;;;;;;21.65;16.52;;;18.10;95.60;;;;;;5033464;28;20116;-78
2021/08/20 07:36:28;;;;;;;21.92;15.85;;;18.20;95.50;;;;;;5033538;28;20478;-78
2021/08/20 07:38:54;;;;;;;22.33;17.75;;;18.30;95.40;;;;;;5032098;28;20029;-78
2021/08/20 07:41:20;;;;;;;22.10;17.65;;;18.30;95.10;;;;;;5032175;28;20037;-79
2021/08/20 07:43:45;;;;;;;23.55;18.38;;;18.40;95.00;;;;;;5033699;28;20025;-78
2021/08/20 07:46:11;;;;;;;23.27;17.35;;;18.40;94.90;;;;;;5032275;28;20026;-79
2021/08/20 07:48:37;;;;;;;18.83;15.85;;;18.50;94.90;;;;;;5032643;28;20477;-79
2021/08/20 07:51:02;;;;;;;20.90;14.77;;;18.60;94.90;;;;;;5015706;28;20026;-78
2021/08/20 07:53:28;;;;;;;21.00;15.98;;;18.70;94.80;;;;;;5015683;28;20438;-79
2021/08/20 07:55:54;;;;;;;21.88;16.83;;;18.70;94.70;;;;;;5033292;28;20037;-79
2021/08/20 07:58:19;;;;;;;19.88;14.85;;;18.70;94.60;;;;;;5031776;28;20057;-78
2021/08/20 08:00:45;;;;;;;18.75;14.63;;;18.80;94.50;;;;;;5033320;28;20040;-79
2021/08/20 08:03:11;;;;;;;17.13;14.85;;;18.90;94.40;;;;;;5032013;28;20038;-79
2021/08/20 08:05:36;;;;;;;18.02;14.90;;;18.90;94.20;;;;;;5032271;28;20492;-79
2021/08/20 08:08:02;;;;;;;17.25;12.88;;;18.90;94.20;;;;;;5033573;28;20025;-78
2021/08/20 08:10:28;;;;;;;15.48;13.10;;;19.10;94.30;;;;;;5015378;28;20497;-78
2021/08/20 08:12:54;;;;;;;20.02;14.07;;;19.10;94.10;;;;;;5035798;28;20021;-79
2021/08/20 08:15:21;;;;;;;17.83;13.45;;;19.10;94.00;;;;;;5038780;28;20033;-79
2021/08/20 08:17:47;;;;;;;15.60;12.10;;;19.20;94.00;;;;;;5034360;28;20014;-78
2021/08/20 08:20:15;;;;;;;17.58;13.43;;;19.30;94.00;;;;;;5033782;28;20037;-78
2021/08/20 08:22:41;;;;;;;17.40;14.07;;;19.30;93.90;;;;;;5035302;28;20033;-78
2021/08/20 08:25:08;;;;;;;16.75;13.93;;;19.40;93.80;;;;;;5041175;28;20029;-78
2021/08/20 08:27:52;;;;;;;16.65;13.88;;;19.40;93.60;;;;;;5036476;28;20470;-78
2021/08/20 08:30:18;;;;;;;20.75;15.88;;;19.40;93.60;;;;;;5036237;28;20112;-78
2021/08/20 08:32:44;;;;;;;16.27;13.52;;;19.40;93.50;;;;;;5036909;28;20180;-78
2021/08/20 08:35:10;;;;;;;17.98;13.13;;;19.50;93.50;;;;;;5019323;28;20072;-79
2021/08/20 08:37:36;;;;;;;15.77;13.23;;;19.60;93.50;;;;;;5035268;28;20028;-78
2021/08/20 08:40:02;;;;;;;15.48;12.93;;;19.60;93.40;;;;;;5036891;28;20604;-78
2021/08/20 08:42:27;;;;;;;17.90;14.43;;;19.70;93.30;;;;;;5035517;28;20037;-78
2021/08/20 08:44:53;;;;;;;16.30;13.82;;;19.80;93.00;;;;;;5036596;28;20026;-78
2021/08/20 08:47:19;;;;;;;17.33;14.82;;;19.90;92.90;;;;;;5035230;28;20040;-78
2021/08/20 08:49:48;;;;;;;17.15;13.60;;;19.90;92.60;;;;;;5036597;28;20026;-78
2021/08/20 08:52:15;;;;;;;15.63;12.98;;;20.00;92.60;;;;;;5036419;28;20087;-78
2021/08/20 08:54:41;;;;;;;15.00;13.32;;;20.10;92.50;;;;;;5036670;28;20040;-78
2021/08/20 08:57:06;;;;;;;16.48;13.60;;;20.20;92.50;;;;;;5034800;28;20033;-78
2021/08/20 08:59:32;;;;;;;15.80;12.20;;;20.40;92.20;;;;;;5036296;28;20029;-78
2021/08/20 09:01:58;;;;;;;15.10;13.40;;;20.50;92.00;;;;;;5035196;28;20038;-78
2021/08/20 09:04:23;;;;;;;15.90;13.20;;;20.50;91.70;;;;;;5018683;28;20465;-78
2021/08/20 09:06:53;;;;;;;13.98;11.63;;;20.60;91.50;;;;;;5018467;28;20026;-78
2021/08/20 09:09:21;;;;;;;15.35;11.90;;;20.70;91.50;;;;;;5035074;28;20366;-78
2021/08/20 09:11:52;;;;;;;13.75;12.05;;;20.80;91.10;;;;;;5035068;28;20030;-78
2021/08/20 09:14:18;;;;;;;19.00;14.20;;;20.90;90.80;;;;;;5018282;28;20064;-79
2021/08/20 09:16:46;;;;;;;14.93;12.70;;;20.90;90.60;;;;;;5018135;28;20549;-78
2021/08/20 09:19:20;;;;;;;15.10;12.43;;;20.80;90.10;;;;;;5036025;28;20034;-79
2021/08/20 09:21:52;;;;;;;;;;;20.90;90.30;;;;;;5036259;28;20033;-78
2021/08/20 09:24:53;;;;;;;17.35;12.63;;;20.90;89.80;;;;;;5034709;28;19951;-78
2021/08/20 09:27:25;;;;;;;12.98;10.10;;;21.00;90.00;;;;;;4978137;28;20034;-78
2021/08/20 09:30:07;;;;;;;13.55;10.57;;;21.10;90.10;;;;;;5028603;28;20038;-78
2021/08/20 09:32:53;;;;;;;14.30;10.40;;;21.20;89.50;;;;;;5034387;28;20038;-79
2021/08/20 09:35:19;;;;;;;12.65;10.43;;;21.40;89.50;;;;;;5035065;28;20604;-78
2021/08/20 09:37:45;;;;;;;12.30;9.90;;;21.50;88.80;;;;;;5034399;28;20029;-79
2021/08/20 09:40:13;;;;;;;12.27;9.65;;;21.60;88.00;;;;;;5034170;28;20516;-78
2021/08/20 09:42:39;;;;;;;12.15;9.23;;;21.80;87.60;;;;;;5006185;28;20474;-78
2021/08/20 09:45:22;;;;;;;15.98;10.82;;;21.90;87.50;;;;;;5013750;28;20038;-79
2021/08/20 09:47:54;;;;;;;14.60;11.32;;;21.90;87.10;;;;;;5014621;28;20188;-79
2021/08/20 09:50:21;;;;;;;14.32;10.85;;;21.90;86.70;;;;;;5015560;28;20482;-78
2021/08/20 09:52:48;;;;;;;15.07;9.93;;;21.80;86.10;;;;;;5010312;28;20040;-78
2021/08/20 09:55:40;;;;;;;13.68;9.80;;;21.80;85.30;;;;;;4996370;28;20033;-79
2021/08/20 09:58:09;;;;;;;12.70;10.48;;;21.70;84.90;;;;;;4992962;28;20049;-78
2021/08/20 10:00:34;;;;;;;11.85;8.63;;;21.60;84.80;;;;;;5009489;28;20423;-78
2021/08/20 10:03:04;;;;;;;11.13;8.60;;;21.60;85.20;;;;;;5011041;28;20034;-78
2021/08/20 10:05:32;;;;;;;11.68;8.20;;;21.80;85.50;;;;;;5011003;28;20073;-78
2021/08/20 10:07:59;;;;;;;11.23;7.75;;;21.90;85.00;;;;;;4993820;28;20019;-79
2021/08/20 10:10:25;;;;;;;10.20;7.78;;;22.10;84.50;;;;;;5010802;28;20398;-79
2021/08/20 10:12:54;;;;;;;11.68;8.50;;;22.30;84.50;;;;;;4995394;28;20042;-79
2021/08/20 10:15:20;;;;;;;11.80;8.68;;;22.30;83.70;;;;;;4995446;28;20033;-79
2021/08/20 10:17:46;;;;;;;11.30;8.65;;;22.40;83.40;;;;;;4994490;28;20027;-79
2021/08/20 10:20:13;;;;;;;11.10;8.02;;;22.40;83.00;;;;;;5010512;28;20475;-79
2021/08/20 10:22:39;;;;;;;10.13;6.35;;;22.50;82.70;;;;;;5010654;28;20399;-79
2021/08/20 10:25:08;;;;;;;10.38;7.38;;;22.70;82.30;;;;;;4995481;28;20042;-78
2021/08/20 10:27:36;;;;;;;9.75;6.20;;;22.80;82.20;;;;;;4994047;28;20032;-79
2021/08/20 10:30:04;;;;;;;9.95;6.18;;;22.90;81.00;;;;;;4994966;28;20030;-78
2021/08/20 10:32:30;;;;;;;9.82;7.35;;;23.00;79.90;;;;;;5010225;28;20049;-78
2021/08/20 10:34:56;;;;;;;11.68;6.53;;;23.10;78.70;;;;;;4994078;28;20030;-78
2021/08/20 10:37:30;;;;;;;8.13;5.88;;;23.30;79.00;;;;;;4977668;28;20391;-78
2021/08/20 10:39:59;;;;;;;9.90;6.90;;;23.60;78.80;;;;;;4995155;28;20034;-79
2021/08/20 10:42:42;;;;;;;10.43;6.55;;;23.80;78.10;;;;;;4993434;28;20116;-78
2021/08/20 10:45:12;;;;;;;7.53;5.70;;;23.90;77.20;;;;;;4994687;28;20026;-79
2021/08/20 10:47:40;;;;;;;9.65;5.43;;;23.90;76.60;;;;;;4994675;28;20360;-78
2021/08/20 10:50:08;;;;;;;8.15;5.03;;;24.00;76.20;;;;;;5009897;28;20364;-79
2021/08/20 10:52:37;;;;;;;9.68;4.82;;;24.00;76.00;;;;;;5010007;28;20513;-79
2021/08/20 10:55:05;;;;;;;4.80;3.30;;;24.00;75.90;;;;;;4993284;28;20018;-78
2021/08/20 10:57:38;;;;;;;5.57;3.08;;;24.00;73.80;;;;;;4994824;28;20042;-78
2021/08/20 11:00:27;;;;;;;5.22;2.38;;;23.90;72.70;;;;;;5009832;28;20387;-79
2021/08/20 11:03:04;;;;;;;2.72;1.02;;;23.80;72.40;;;;;;4993186;28;20049;-79
2021/08/20 11:05:40;;;;;;;2.15;1.17;;;23.70;70.00;;;;;;4993581;28;20471;-78
2021/08/20 11:08:28;;;;;;;4.38;1.65;;;23.70;69.60;;;;;;4993225;28;20410;-78
2021/08/20 11:10:55;;;;;;;2.83;1.40;;;23.80;69.50;;;;;;4994785;28;20030;-79
2021/08/20 11:13:20;;;;;;;4.50;1.75;;;23.90;70.00;;;;;;4994439;28;20046;-79
2021/08/20 11:15:48;;;;;;;5.03;2.50;;;24.00;69.10;;;;;;5009538;28;20379;-79
2021/08/20 11:18:14;;;;;;;5.05;2.58;;;24.10;68.10;;;;;;4993355;28;20500;-78
2021/08/20 11:20:49;;;;;;;5.50;2.90;;;24.20;68.20;;;;;;5009319;28;20064;-79
2021/08/20 11:23:18;;;;;;;6.85;3.00;;;24.50;68.10;;;;;;5009320;28;20510;-79
2021/08/20 11:25:48;;;;;;;5.85;3.42;;;24.80;67.70;;;;;;5009312;28;20080;-79
2021/08/20 11:28:21;;;;;;;4.80;2.78;;;25.30;67.40;;;;;;5009522;28;20022;-79
2021/08/20 11:31:08;;;;;;;5.35;3.45;;;26.10;67.80;;;;;;5009214;28;20026;-79
2021/08/20 11:33:38;;;;;;;4.28;2.65;;;27.00;66.80;;;;;;5004122;28;20107;-79
2021/08/20 11:36:08;;;;;;;4.10;2.85;;;27.80;67.20;;;;;;5013867;28;20057;-79
2021/08/20 11:38:46;;;;;;;4.95;2.50;;;28.60;65.10;;;;;;5028245;28;20060;-80
2021/08/20 11:41:24;;;;;;;6.18;1.83;;;29.30;62.00;;;;;;5012608;28;20486;-80
2021/08/20 11:43:53;;;;;;;3.90;3.33;;;29.80;60.20;;;;;;5012191;28;20029;-80
2021/08/20 11:46:19;;;;;;;5.10;3.33;;;29.90;58.20;;;;;;5011990;28;20022;-80
2021/08/20 11:48:48;;;;;;;5.65;3.40;;;30.10;56.40;;;;;;5012445;28;20152;-79
2021/08/20 11:51:28;;;;;;;5.28;3.17;;;30.30;55.70;;;;;;5012162;28;20472;-79
2021/08/20 11:53:58;;;;;;;4.47;2.97;;;30.30;54.80;;;;;;5013567;28;20120;-79
2021/08/20 11:56:24;;;;;;;5.22;3.22;;;30.00;54.60;;;;;;5012241;28;20091;-79
2021/08/20 11:58:50;;;;;;;4.50;3.25;;;29.80;53.80;;;;;;5012859;28;20054;-79
2021/08/20 12:01:18;;;;;;;4.35;3.03;;;29.70;53.70;;;;;;5013233;28;20552;-79
2021/08/20 12:03:49;;;;;;;4.90;3.33;;;29.70;53.50;;;;;;5010906;28;20068;-79
2021/08/20 12:06:16;;;;;;;4.78;3.40;;;29.90;53.70;;;;;;4992390;28;20030;-79
2021/08/20 12:08:43;;;;;;;5.68;4.13;;;30.00;52.90;;;;;;4992095;28;20026;-80
2021/08/20 12:11:10;;;;;;;4.97;2.90;;;29.90;52.20;;;;;;4992506;28;20030;-79
2021/08/20 12:13:47;;;;;;;4.70;2.35;;;30.00;52.80;;;;;;4992427;28;20034;-80
2021/08/20 12:16:34;;;;;;;4.38;3.38;;;30.30;51.00;;;;;;4992547;28;20050;-80
2021/08/20 12:19:44;;;;;;;4.32;2.58;;;30.70;50.90;;;;;;4993731;28;20483;-81
2021/08/20 12:22:11;;;;;;;3.85;2.38;;;31.20;50.00;;;;;;5001951;28;20045;-80
2021/08/20 12:24:53;;;;;;;6.10;3.70;;;31.50;50.10;;;;;;4995997;28;20126;-80
2021/08/20 12:27:25;;;;;;;4.50;3.17;;;31.70;49.80;;;;;;5003329;28;20494;-80
2021/08/20 12:30:00;;;;;;;6.65;4.28;;;32.10;49.80;;;;;;4994562;28;20026;-80
2021/08/20 12:32:31;;;;;;;6.32;3.97;;;32.50;48.40;;;;;;4996454;28;20057;-80